createdAt,value
2022-12-06T00:01:29.377Z,95993.94
2022-12-06T00:03:59.748Z,95983.84
2022-12-06T00:06:29.793Z,95992.13
2022-12-06T00:08:59.369Z,95990.75
2022-12-06T00:11:29.719Z,95996.69
2022-12-06T00:14:01.601Z,95989.22
2022-12-06T00:16:30.739Z,95972.41
2022-12-06T00:19:02.015Z,95986.94
2022-12-06T00:21:32.062Z,95872.63
2022-12-06T00:24:02.319Z,95989.41
2022-12-06T00:26:31.771Z,95982.59
2022-12-06T00:29:02.061Z,95981.41
2022-12-06T00:31:32.204Z,95986.50
2022-12-06T00:34:00.541Z,95980.88
2022-12-06T00:36:30.510Z,95902.47
2022-12-06T00:39:00.879Z,95974.69
2022-12-06T00:41:29.490Z,95985.97
2022-12-06T00:43:57.747Z,95983.09
2022-12-06T00:46:30.233Z,95980.03
2022-12-06T00:49:00.242Z,95971.19
2022-12-06T00:51:30.313Z,95958.84
2022-12-06T00:53:59.145Z,95966.44
2022-12-06T00:56:27.905Z,95972.28
2022-12-06T00:58:56.737Z,95970.09
2022-12-06T01:01:28.533Z,95963.75
2022-12-06T01:03:59.269Z,95965.22
2022-12-06T01:06:29.886Z,95966.59
2022-12-06T01:08:58.949Z,95968.34
2022-12-06T01:11:28.070Z,95968.16
2022-12-06T01:13:56.608Z,95967.28
2022-12-06T01:16:28.212Z,95866.84
2022-12-06T01:18:58.737Z,95960.16
2022-12-06T01:21:27.957Z,95956.53
2022-12-06T01:23:56.311Z,95957.56
2022-12-06T01:26:26.334Z,95955.28
2022-12-06T01:28:55.481Z,95950.59
2022-12-06T01:31:24.100Z,95834.88
2022-12-06T01:33:53.858Z,95956.38
2022-12-06T01:36:24.039Z,95955.19
2022-12-06T01:38:53.062Z,95954.41
2022-12-06T01:41:23.512Z,95956.53
2022-12-06T01:43:52.390Z,95943.47
2022-12-06T01:46:33.323Z,95925.53
2022-12-06T01:49:21.793Z,95948.22
2022-12-06T01:51:52.830Z,95950.50
2022-12-06T01:54:24.765Z,95944.53
2022-12-06T01:56:55.112Z,95946.88
2022-12-06T01:59:24.669Z,95947.56
2022-12-06T02:01:54.411Z,95936.47
2022-12-06T02:04:24.773Z,95938.72
2022-12-06T02:06:55.403Z,95933.25
2022-12-06T02:09:24.642Z,95945.19
2022-12-06T02:11:52.949Z,95937.44
2022-12-06T02:14:24.795Z,95944.28
2022-12-06T02:17:10.078Z,95938.72
2022-12-06T02:20:06.702Z,95927.22
2022-12-06T02:22:54.240Z,95923.59
2022-12-06T02:25:52.283Z,95920.06
2022-12-06T02:28:50.997Z,95920.53
2022-12-06T02:31:27.178Z,95920.53
2022-12-06T02:34:13.111Z,95916.66
2022-12-06T02:36:46.850Z,95898.53
2022-12-06T02:39:20.030Z,95912.22
2022-12-06T02:41:54.525Z,95917.69
2022-12-06T02:44:27.538Z,95920.66
2022-12-06T02:46:58.914Z,95914.25
2022-12-06T02:49:32.783Z,95910.28
2022-12-06T02:52:01.154Z,95909.94
2022-12-06T02:54:31.535Z,95902.25
2022-12-06T02:56:59.768Z,95906.06
2022-12-06T02:59:28.060Z,95909.28
2022-12-06T03:02:02.935Z,95914.63
2022-12-06T03:04:54.161Z,95878.72
2022-12-06T03:07:36.608Z,95907.25
2022-12-06T03:10:29.331Z,95904.41
2022-12-06T03:13:10.097Z,95904.63
2022-12-06T03:15:48.256Z,95898.78
2022-12-06T03:18:22.747Z,95901.06
2022-12-06T03:20:55.312Z,95902.34
2022-12-06T03:23:27.457Z,95827.19
2022-12-06T03:25:59.770Z,95898.84
2022-12-06T03:28:30.527Z,95810.94
2022-12-06T03:31:02.599Z,95892.84
2022-12-06T03:33:36.701Z,95886.22
2022-12-06T03:36:05.621Z,95889.94
2022-12-06T03:38:39.271Z,95892.44
2022-12-06T03:41:08.992Z,95895.91
2022-12-06T03:43:37.370Z,95890.00
2022-12-06T03:46:12.044Z,95886.03
2022-12-06T03:48:45.141Z,95870.84
2022-12-06T03:51:18.380Z,95887.25
2022-12-06T03:53:49.571Z,95880.25
2022-12-06T03:56:17.893Z,95884.00
2022-12-06T03:58:46.283Z,95874.28
2022-12-06T04:01:14.831Z,95884.78
2022-12-06T04:03:44.598Z,95877.94
2022-12-06T04:06:13.394Z,95854.34
2022-12-06T04:08:41.814Z,95883.19
2022-12-06T04:11:10.123Z,95886.22
2022-12-06T04:13:38.454Z,95887.47
2022-12-06T04:16:28.263Z,95880.78
2022-12-06T04:18:56.990Z,95891.31
2022-12-06T04:21:42.776Z,95893.19
2022-12-06T04:24:11.115Z,95881.78
2022-12-06T04:26:39.324Z,95893.56
2022-12-06T04:29:24.974Z,95892.84
2022-12-06T04:32:10.510Z,95890.09
2022-12-06T04:34:57.688Z,95890.25
2022-12-06T04:37:43.094Z,95889.94
2022-12-06T04:40:12.275Z,95884.97
2022-12-06T04:42:57.979Z,95888.41
2022-12-06T04:45:26.329Z,95893.06
2022-12-06T04:47:54.531Z,95887.34
2022-12-06T04:50:24.232Z,95892.47
2022-12-06T04:52:52.384Z,95891.41
2022-12-06T04:55:20.643Z,95892.81
2022-12-06T04:57:48.901Z,95900.84
2022-12-06T05:00:17.690Z,95892.44
2022-12-06T05:02:45.962Z,95834.59
2022-12-06T05:05:14.326Z,95899.31
2022-12-06T05:07:44.009Z,95898.94
2022-12-06T05:10:13.331Z,95906.03
2022-12-06T05:12:41.617Z,95899.09
2022-12-06T05:15:10.680Z,95900.91
2022-12-06T05:17:38.879Z,95903.97
2022-12-06T05:20:08.624Z,95900.28
2022-12-06T05:22:36.858Z,95897.34
2022-12-06T05:25:07.281Z,95903.34
2022-12-06T05:27:36.350Z,95908.06
2022-12-06T05:30:05.776Z,95906.72
2022-12-06T05:32:34.227Z,95813.91
2022-12-06T05:35:02.556Z,95900.47
2022-12-06T05:37:30.806Z,95909.13
2022-12-06T05:39:59.450Z,95906.53
2022-12-06T05:42:31.755Z,95901.34
2022-12-06T05:45:00.002Z,95901.91
2022-12-06T05:47:28.243Z,95902.56
2022-12-06T05:49:56.491Z,95902.63
2022-12-06T05:52:24.798Z,95879.66
2022-12-06T05:54:53.048Z,95898.84
2022-12-06T05:57:21.336Z,95881.47
2022-12-06T05:59:51.158Z,95913.81
2022-12-06T06:02:19.644Z,95908.47
2022-12-06T06:04:47.891Z,95905.94
2022-12-06T06:07:16.161Z,95908.41
2022-12-06T06:09:44.341Z,95907.56
2022-12-06T06:12:13.040Z,95908.13
2022-12-06T06:14:41.384Z,95908.72
2022-12-06T06:17:11.017Z,95845.81
2022-12-06T06:19:39.241Z,95904.41
2022-12-06T06:22:07.713Z,95910.41
2022-12-06T06:24:40.303Z,95905.28
2022-12-06T06:27:08.871Z,95916.00
2022-12-06T06:29:40.769Z,95924.66
2022-12-06T06:32:14.960Z,95925.09
2022-12-06T06:34:43.211Z,95912.72
2022-12-06T06:37:11.522Z,95925.41
2022-12-06T06:39:39.825Z,95924.13
2022-12-06T06:42:08.086Z,95919.22
2022-12-06T06:44:36.306Z,95921.44
2022-12-06T06:47:05.056Z,95915.03
2022-12-06T06:49:34.730Z,95910.94
2022-12-06T06:52:02.953Z,95927.75
2022-12-06T06:54:31.289Z,95932.81
2022-12-06T06:56:59.772Z,95919.44
2022-12-06T06:59:27.994Z,95931.25
2022-12-06T07:01:56.370Z,95925.69
2022-12-06T07:04:24.723Z,95928.38
2022-12-06T07:06:54.396Z,95918.84
2022-12-06T07:09:22.964Z,95917.53
2022-12-06T07:11:51.157Z,95921.28
2022-12-06T07:14:19.462Z,95916.81
2022-12-06T07:16:47.755Z,95914.34
2022-12-06T07:19:16.102Z,95909.63
2022-12-06T07:21:44.406Z,95912.28
2022-12-06T07:24:14.190Z,95907.13
2022-12-06T07:26:42.510Z,95910.81
2022-12-06T07:29:10.907Z,95916.59
2022-12-06T07:31:40.528Z,95913.88
2022-12-06T07:34:08.862Z,95913.34
2022-12-06T07:36:37.184Z,95914.28
2022-12-06T07:39:14.270Z,95911.13
2022-12-06T07:42:01.958Z,95906.81
2022-12-06T07:44:47.392Z,95905.03
2022-12-06T07:47:15.870Z,95914.66
2022-12-06T07:49:44.490Z,95918.47
2022-12-06T07:52:12.682Z,95911.72
2022-12-06T07:54:41.691Z,95906.50
2022-12-06T07:57:11.259Z,95907.88
2022-12-06T07:59:39.600Z,95896.22
2022-12-06T08:02:08.244Z,95905.69
2022-12-06T08:04:36.818Z,95900.06
2022-12-06T08:07:07.677Z,95891.59
2022-12-06T08:09:36.016Z,95904.84
2022-12-06T08:12:04.651Z,95914.69
2022-12-06T08:14:35.040Z,95918.41
2022-12-06T08:17:05.603Z,95912.97
2022-12-06T08:19:37.001Z,95853.81
2022-12-06T08:22:06.550Z,95892.28
2022-12-06T08:24:34.863Z,95892.75
2022-12-06T08:27:03.202Z,95903.09
2022-12-06T08:29:31.480Z,95905.13
2022-12-06T08:32:01.213Z,95913.06
2022-12-06T08:34:29.470Z,95909.78
2022-12-06T08:37:01.757Z,95907.00
2022-12-06T08:39:31.808Z,95910.53
2022-12-06T08:42:00.333Z,95907.31
2022-12-06T08:44:30.200Z,95808.34
2022-12-06T08:47:01.608Z,95896.38
2022-12-06T08:49:33.709Z,95883.78
2022-12-06T08:52:01.975Z,95897.28
2022-12-06T08:54:31.019Z,95894.78
2022-12-06T08:56:59.333Z,95891.94
2022-12-06T08:59:27.850Z,95829.03
2022-12-06T09:01:57.710Z,95882.41
2022-12-06T09:04:36.470Z,95876.38
2022-12-06T09:07:10.074Z,95859.81
2022-12-06T09:09:54.395Z,95879.13
2022-12-06T09:12:40.959Z,95873.44
2022-12-06T09:15:10.380Z,95871.50
2022-12-06T09:17:38.682Z,95790.34
2022-12-06T09:20:18.539Z,95862.56
2022-12-06T09:22:47.106Z,95857.03
2022-12-06T09:25:15.910Z,95863.50
2022-12-06T09:27:50.727Z,95861.72
2022-12-06T09:30:19.062Z,95851.22
2022-12-06T09:32:48.497Z,95831.25
2022-12-06T09:35:23.512Z,95841.75
2022-12-06T09:37:53.621Z,95834.81
2022-12-06T09:40:38.586Z,95834.91
2022-12-06T09:43:21.801Z,95818.63
2022-12-06T09:46:09.643Z,95822.94
2022-12-06T09:49:28.135Z,95811.00
2022-12-06T09:52:26.438Z,95818.88
2022-12-06T09:55:15.337Z,95808.72
2022-12-06T09:57:50.308Z,95807.06
2022-12-06T10:00:24.149Z,95806.84
2022-12-06T10:03:23.062Z,95805.47
2022-12-06T10:06:01.237Z,95778.84
2022-12-06T10:08:45.694Z,95790.38
2022-12-06T10:11:25.114Z,95786.16
2022-12-06T10:14:09.279Z,95784.25
2022-12-06T10:16:52.702Z,95772.13
2022-12-06T10:19:29.842Z,95770.53
2022-12-06T10:22:13.746Z,95771.81
2022-12-06T10:24:57.117Z,95769.72
2022-12-06T10:27:30.815Z,95768.13
2022-12-06T10:30:03.988Z,95761.75
2022-12-06T10:32:55.023Z,95762.28
2022-12-06T10:35:41.010Z,95754.38
2022-12-06T10:38:20.434Z,95752.81
2022-12-06T10:41:07.219Z,95744.84
2022-12-06T10:43:58.007Z,95744.28
2022-12-06T10:46:51.892Z,95739.47
2022-12-06T10:49:28.147Z,95733.09
2022-12-06T10:52:02.672Z,95721.47
2022-12-06T10:54:36.475Z,95727.78
2022-12-06T10:57:12.949Z,95723.06
2022-12-06T10:59:51.839Z,95713.25
2022-12-06T11:02:29.717Z,95703.94
2022-12-06T11:05:03.255Z,95704.75
2022-12-06T11:07:39.167Z,95680.06
2022-12-06T11:10:18.794Z,95706.88
2022-12-06T11:12:54.821Z,95697.84
2022-12-06T11:15:27.943Z,95687.16
2022-12-06T11:18:03.718Z,95677.81
2022-12-06T11:20:39.623Z,95682.19
2022-12-06T11:23:14.019Z,95699.91
2022-12-06T11:26:01.118Z,95694.25
2022-12-06T11:28:37.725Z,95649.81
2022-12-06T11:31:17.519Z,95679.47
2022-12-06T11:33:46.621Z,95680.19
2022-12-06T11:36:16.199Z,95652.00
2022-12-06T11:38:46.263Z,95647.91
2022-12-06T11:41:21.167Z,95651.38
2022-12-06T11:43:52.602Z,95667.06
2022-12-06T11:46:22.266Z,95590.09
2022-12-06T11:48:51.129Z,95631.81
2022-12-06T11:51:21.977Z,95652.28
2022-12-06T11:53:59.302Z,95656.88
2022-12-06T11:56:30.318Z,95652.84
2022-12-06T11:59:08.374Z,95647.00
2022-12-06T12:01:43.663Z,95657.31
2022-12-06T12:04:33.003Z,95650.97
2022-12-06T12:07:04.224Z,95642.47
2022-12-06T12:09:36.728Z,95632.13
2022-12-06T12:12:07.266Z,95600.03
2022-12-06T12:14:46.475Z,95626.59
2022-12-06T12:17:21.002Z,95623.88
2022-12-06T12:19:53.386Z,95628.06
2022-12-06T12:22:31.488Z,95600.09
2022-12-06T12:27:54.289Z,95589.69
2022-12-06T12:30:36.744Z,95547.06
2022-12-06T12:33:26.409Z,95584.09
2022-12-06T12:36:10.562Z,95614.28
2022-12-06T12:39:02.371Z,95614.00
2022-12-06T12:41:34.981Z,95591.81
2022-12-06T12:44:37.091Z,95611.50
2022-12-06T12:46:58.009Z,95451.75
2022-12-06T12:49:33.930Z,95587.16
2022-12-06T12:52:04.944Z,95613.09
2022-12-06T12:54:35.481Z,95608.19
2022-12-06T12:57:09.204Z,95623.00
2022-12-06T12:59:41.563Z,95568.44
2022-12-06T13:02:22.574Z,95592.09
2022-12-06T13:05:11.171Z,95602.31
2022-12-06T13:07:44.394Z,95560.66
2022-12-06T13:10:21.910Z,95602.59
2022-12-06T13:12:53.921Z,95587.44
2022-12-06T13:15:27.355Z,95587.16
2022-12-06T13:18:00.243Z,95610.09
2022-12-06T13:20:30.795Z,95606.56
2022-12-06T13:23:03.244Z,95600.75
2022-12-06T13:25:31.516Z,95604.56
2022-12-06T13:28:05.805Z,95605.13
2022-12-06T13:30:38.000Z,95599.91
2022-12-06T13:33:20.649Z,95598.25
2022-12-06T13:35:59.041Z,95600.78
2022-12-06T13:38:32.662Z,95599.00
2022-12-06T13:41:02.242Z,95596.44
2022-12-06T13:44:00.265Z,95596.97
2022-12-06T13:46:33.283Z,95581.31
2022-12-06T13:49:05.405Z,95586.00
2022-12-06T13:51:44.982Z,95591.09
2022-12-06T13:54:37.484Z,95583.72
2022-12-06T13:57:29.898Z,95600.16
2022-12-06T14:00:00.061Z,95604.94
2022-12-06T14:02:52.574Z,95596.19
2022-12-06T14:06:07.712Z,95585.56
2022-12-06T14:08:42.601Z,95585.03
2022-12-06T14:11:21.100Z,95578.63
2022-12-06T14:14:00.254Z,95592.69
2022-12-06T14:16:34.242Z,95484.22
2022-12-06T14:19:12.975Z,95589.19
2022-12-06T14:21:44.569Z,95584.38
2022-12-06T14:24:28.872Z,95586.09
2022-12-06T14:27:04.485Z,95595.34
2022-12-06T14:29:33.230Z,95590.59
2022-12-06T14:32:01.482Z,95588.16
2022-12-06T14:34:31.796Z,95591.06
2022-12-06T14:37:03.118Z,95592.94
2022-12-06T14:39:33.342Z,95591.38
2022-12-06T14:42:21.447Z,95591.91
2022-12-06T14:44:51.611Z,95588.22
2022-12-06T14:47:21.992Z,95588.47
2022-12-06T14:50:10.762Z,95595.91
2022-12-06T14:52:57.623Z,95596.16
2022-12-06T14:55:26.651Z,95596.16
2022-12-06T14:57:58.913Z,95596.16
2022-12-06T15:00:36.168Z,95592.47
2022-12-06T15:03:29.972Z,95589.28
2022-12-06T15:06:17.051Z,95596.16
2022-12-06T15:08:51.953Z,95593.53
2022-12-06T15:11:53.264Z,95590.09
2022-12-06T15:14:23.392Z,95529.31
2022-12-06T15:17:03.109Z,95592.44
2022-12-06T15:19:33.367Z,95594.59
2022-12-06T15:22:02.269Z,95587.38
2022-12-06T15:24:34.290Z,95587.97
2022-12-06T15:27:03.769Z,95580.78
2022-12-06T15:29:32.053Z,95583.44
2022-12-06T15:32:00.313Z,95584.44
2022-12-06T15:34:29.987Z,95577.75
2022-12-06T15:37:38.076Z,95576.72
2022-12-06T15:39:50.429Z,95574.41
2022-12-06T15:42:20.882Z,95569.38
2022-12-06T15:44:50.170Z,95561.28
2022-12-06T15:47:22.056Z,95536.47
2022-12-06T15:49:53.396Z,95565.72
2022-12-06T15:52:23.750Z,95564.06
2022-12-06T15:54:53.428Z,95563.53
2022-12-06T15:57:21.727Z,95536.28
2022-12-06T15:59:50.095Z,95569.25
2022-12-06T16:02:19.866Z,95531.44
2022-12-06T16:04:51.064Z,95565.75
2022-12-06T16:07:19.833Z,95574.31
2022-12-06T16:09:48.667Z,95502.31
2022-12-06T16:12:18.638Z,95490.94
2022-12-06T16:14:46.842Z,95561.63
2022-12-06T16:17:15.155Z,95561.44
2022-12-06T16:20:00.440Z,95563.41
2022-12-06T16:22:42.481Z,95566.59
2022-12-06T16:25:11.106Z,95555.88
2022-12-06T16:27:40.807Z,95554.00
2022-12-06T16:30:10.459Z,95441.88
2022-12-06T16:32:38.671Z,95554.41
2022-12-06T16:35:07.203Z,95560.53
2022-12-06T16:37:35.490Z,95561.13
2022-12-06T16:40:03.735Z,95562.75
2022-12-06T16:42:31.966Z,95567.22
2022-12-06T16:45:01.787Z,95567.69
2022-12-06T16:47:32.806Z,95531.53
2022-12-06T16:50:01.031Z,95550.75
2022-12-06T16:52:29.456Z,95546.44
2022-12-06T16:54:57.747Z,95564.50
2022-12-06T16:57:25.951Z,95560.84
2022-12-06T16:59:54.828Z,95557.38
2022-12-06T17:02:30.280Z,95559.28
2022-12-06T17:05:01.416Z,95569.28
2022-12-06T17:07:30.252Z,95563.19
2022-12-06T17:09:58.573Z,95561.25
2022-12-06T17:12:27.114Z,95561.81
2022-12-06T17:14:55.484Z,95554.84
2022-12-06T17:17:26.066Z,95557.84
2022-12-06T17:19:56.479Z,95552.94
2022-12-06T17:22:24.946Z,95549.66
2022-12-06T17:24:53.163Z,95547.53
2022-12-06T17:27:23.948Z,95554.16
2022-12-06T17:29:52.194Z,95539.97
2022-12-06T17:32:20.696Z,95557.84
2022-12-06T17:34:49.078Z,95543.06
2022-12-06T17:37:18.793Z,95505.63
2022-12-06T17:39:48.617Z,95544.22
2022-12-06T17:42:45.877Z,95534.97
2022-12-06T17:45:14.083Z,95545.31
2022-12-06T17:47:42.383Z,95547.13
2022-12-06T17:50:11.905Z,95543.06
2022-12-06T17:52:41.502Z,95540.94
2022-12-06T17:55:11.394Z,95545.53
2022-12-06T17:57:39.608Z,95545.81
2022-12-06T18:00:09.421Z,95544.22
2022-12-06T18:02:38.098Z,95537.03
2022-12-06T18:05:07.689Z,95542.34
2022-12-06T18:07:39.368Z,95541.59
2022-12-06T18:10:13.342Z,95534.44
2022-12-06T18:12:45.372Z,95540.22
2022-12-06T18:15:28.210Z,95547.16
2022-12-06T18:17:57.043Z,95538.91
2022-12-06T18:20:25.583Z,95541.84
2022-12-06T18:22:54.342Z,95540.78
2022-12-06T18:25:24.058Z,95545.31
2022-12-06T18:27:53.186Z,95545.84
2022-12-06T18:30:21.639Z,95531.00
2022-12-06T18:32:49.851Z,95553.19
2022-12-06T18:35:18.077Z,95558.19
2022-12-06T18:37:46.393Z,95550.88
2022-12-06T18:40:14.977Z,95552.09
2022-12-06T18:42:45.786Z,95541.63
2022-12-06T18:45:14.086Z,95545.63
2022-12-06T18:47:42.302Z,95544.28
2022-12-06T18:50:10.697Z,95537.44
2022-12-06T18:52:38.938Z,95538.19
2022-12-06T18:55:08.242Z,95525.72
2022-12-06T18:57:38.275Z,95531.28
2022-12-06T19:00:09.331Z,95384.53
2022-12-06T19:02:37.765Z,95534.19
2022-12-06T19:05:06.926Z,95535.25
2022-12-06T19:07:35.919Z,95531.50
2022-12-06T19:10:04.877Z,95527.38
2022-12-06T19:12:33.400Z,95529.56
2022-12-06T19:15:01.634Z,95524.56
2022-12-06T19:17:31.306Z,95531.81
2022-12-06T19:19:59.860Z,95527.59
2022-12-06T19:22:28.463Z,95531.66
2022-12-06T19:24:56.753Z,95530.25
2022-12-06T19:27:24.990Z,95526.66
2022-12-06T19:29:54.189Z,95525.75
2022-12-06T19:32:22.498Z,95538.84
2022-12-06T19:34:52.479Z,95528.00
2022-12-06T19:37:21.049Z,95529.63
2022-12-06T19:39:49.621Z,95538.44
2022-12-06T19:42:35.441Z,95531.72
2022-12-06T19:45:03.745Z,95547.19
2022-12-06T19:47:33.818Z,95543.22
2022-12-06T19:50:03.729Z,95544.56
2022-12-06T19:52:32.042Z,95545.91
2022-12-06T19:55:00.273Z,95530.34
2022-12-06T19:57:28.816Z,95538.09
2022-12-06T19:59:57.496Z,95524.16
2022-12-06T20:02:25.896Z,95539.38
2022-12-06T20:04:54.162Z,95528.78
2022-12-06T20:07:23.800Z,95522.34
2022-12-06T20:09:52.026Z,95517.72
2022-12-06T20:12:20.285Z,95515.66
2022-12-06T20:14:50.523Z,95518.41
2022-12-06T20:17:21.342Z,95520.53
2022-12-06T20:19:50.187Z,95520.47
2022-12-06T20:22:22.208Z,95513.81
2022-12-06T20:24:52.018Z,95516.78
2022-12-06T20:27:40.985Z,95517.34
2022-12-06T20:30:10.648Z,95507.44
2022-12-06T20:32:39.076Z,95510.59
2022-12-06T20:35:07.786Z,95502.44
2022-12-06T20:37:36.044Z,95504.69
2022-12-06T20:40:06.641Z,95514.53
2022-12-06T20:42:35.907Z,95499.41
2022-12-06T20:45:04.553Z,95510.63
2022-12-06T20:47:33.145Z,95520.66
2022-12-06T20:50:02.498Z,95516.44
2022-12-06T20:52:30.994Z,95515.13
2022-12-06T20:54:59.279Z,95505.31
2022-12-06T20:57:28.859Z,95512.53
2022-12-06T21:00:00.838Z,95494.81
2022-12-06T21:02:34.486Z,95519.22
2022-12-06T21:05:02.769Z,95518.03
2022-12-06T21:07:31.016Z,95508.28
2022-12-06T21:09:59.721Z,95506.91
2022-12-06T21:12:29.574Z,95512.28
2022-12-06T21:14:57.859Z,95499.03
2022-12-06T21:17:26.088Z,95497.09
2022-12-06T21:19:54.356Z,95500.09
2022-12-06T21:22:22.658Z,95507.06
2022-12-06T21:24:51.345Z,95507.31
2022-12-06T21:27:19.617Z,95504.63
2022-12-06T21:29:49.318Z,95506.00
2022-12-06T21:32:17.589Z,95508.88
2022-12-06T21:34:46.669Z,95498.50
2022-12-06T21:37:15.202Z,95497.97
2022-12-06T21:39:46.440Z,95504.03
2022-12-06T21:42:15.854Z,95474.41
2022-12-06T21:44:44.110Z,95498.34
2022-12-06T21:47:13.853Z,95494.06
2022-12-06T21:49:42.468Z,95444.13
2022-12-06T21:52:10.671Z,95508.16
2022-12-06T21:54:38.908Z,95508.75
2022-12-06T21:57:07.107Z,95501.38
2022-12-06T21:59:35.518Z,95498.75
2022-12-06T22:02:03.808Z,95498.91
2022-12-06T22:04:33.740Z,95496.84
2022-12-06T22:07:01.958Z,95500.56
2022-12-06T22:09:30.242Z,95499.50
2022-12-06T22:11:58.734Z,95485.44
2022-12-06T22:14:27.057Z,95489.16
2022-12-06T22:16:55.263Z,95492.09
2022-12-06T22:19:23.572Z,95484.69
2022-12-06T22:21:55.889Z,95485.47
2022-12-06T22:24:24.739Z,95480.97
2022-12-06T22:26:52.948Z,95477.53
2022-12-06T22:29:21.172Z,95479.31
2022-12-06T22:31:49.672Z,95470.09
2022-12-06T22:34:17.874Z,95479.88
2022-12-06T22:36:46.100Z,95477.53
2022-12-06T22:39:15.778Z,95470.91
2022-12-06T22:41:43.994Z,95466.13
2022-12-06T22:44:12.841Z,95472.66
2022-12-06T22:46:41.224Z,95464.69
2022-12-06T22:49:12.575Z,95461.56
2022-12-06T22:51:43.221Z,95460.22
2022-12-06T22:54:13.670Z,95452.28
2022-12-06T22:56:48.396Z,95455.38
2022-12-06T22:59:17.908Z,95458.94
2022-12-06T23:01:46.340Z,95463.75
2022-12-06T23:04:14.690Z,95455.53
2022-12-06T23:06:42.919Z,95453.03
2022-12-06T23:09:15.986Z,95463.69
2022-12-06T23:11:45.706Z,95455.28
2022-12-06T23:14:13.982Z,95454.44
2022-12-06T23:16:44.042Z,95453.56
2022-12-06T23:19:12.418Z,95456.59
2022-12-06T23:21:42.557Z,95450.50
2022-12-06T23:24:13.101Z,95448.31
2022-12-06T23:26:43.212Z,95458.28
2022-12-06T23:29:14.302Z,95465.38
2022-12-06T23:31:44.298Z,95368.75
2022-12-06T23:34:14.830Z,95452.34
2022-12-06T23:36:43.752Z,95466.88
2022-12-06T23:39:12.386Z,95463.59
2022-12-06T23:41:40.850Z,95461.72
2022-12-06T23:44:10.746Z,95459.91
2022-12-06T23:46:41.807Z,95460.97
2022-12-06T23:49:16.713Z,95446.38
2022-12-06T23:51:45.160Z,95458.84
2022-12-06T23:54:14.738Z,95469.50
2022-12-06T23:56:44.271Z,95463.75
2022-12-06T23:59:15.170Z,95379.09
